createdAt,value
2018-02-20T00:01:21.091Z,3.22
2018-02-20T00:03:48.836Z,4.40
2018-02-20T00:06:16.349Z,3.53
2018-02-20T00:08:43.894Z,4.15
2018-02-20T00:11:11.818Z,2.73
2018-02-20T00:13:39.383Z,4.28
2018-02-20T00:16:06.905Z,3.45
2018-02-20T00:18:34.449Z,3.60
2018-02-20T00:21:01.970Z,3.13
2018-02-20T00:23:29.481Z,2.75
2018-02-20T00:25:57.021Z,3.30
2018-02-20T00:28:24.547Z,2.83
2018-02-20T00:30:52.088Z,2.92
2018-02-20T00:33:19.602Z,2.90
2018-02-20T00:35:47.111Z,2.70
2018-02-20T00:38:14.632Z,4.15
2018-02-20T00:40:42.152Z,2.60
2018-02-20T00:43:09.687Z,3.60
2018-02-20T00:45:37.243Z,4.18
2018-02-20T00:48:04.808Z,3.53
2018-02-20T00:50:32.336Z,3.33
2018-02-20T00:52:59.868Z,3.47
2018-02-20T00:55:27.397Z,3.30
2018-02-20T00:57:54.919Z,3.97
2018-02-20T01:00:22.491Z,4.45
2018-02-20T01:02:50.016Z,3.93
2018-02-20T01:05:17.550Z,4.17
2018-02-20T01:07:45.081Z,4.20
2018-02-20T01:10:12.606Z,3.97
2018-02-20T01:12:40.138Z,4.20
2018-02-20T01:15:07.654Z,3.90
2018-02-20T01:17:35.161Z,4.50
2018-02-20T01:20:02.682Z,4.25
2018-02-20T01:22:30.224Z,4.43
2018-02-20T01:24:57.768Z,5.07
2018-02-20T01:27:25.290Z,4.57
2018-02-20T01:29:52.824Z,4.20
2018-02-20T01:32:20.343Z,4.47
2018-02-20T01:34:47.856Z,5.10
2018-02-20T01:37:15.395Z,3.37
2018-02-20T01:39:42.909Z,5.25
2018-02-20T01:42:10.421Z,4.30
2018-02-20T01:44:37.946Z,5.32
2018-02-20T01:47:05.463Z,5.73
2018-02-20T01:49:33.066Z,5.15
2018-02-20T01:52:00.575Z,5.15
2018-02-20T01:54:28.105Z,4.80
2018-02-20T01:56:55.613Z,5.97
2018-02-20T01:59:23.171Z,5.30
2018-02-20T02:01:50.733Z,4.90
2018-02-20T02:04:18.259Z,5.70
2018-02-20T02:06:45.775Z,4.95
2018-02-20T02:09:13.301Z,5.22
2018-02-20T02:11:40.813Z,5.22
2018-02-20T02:14:08.355Z,6.00
2018-02-20T02:16:35.868Z,4.65
2018-02-20T02:19:03.401Z,4.90
2018-02-20T02:21:30.930Z,4.43
2018-02-20T02:23:58.450Z,4.43
2018-02-20T02:26:26.110Z,4.00
2018-02-20T02:28:53.632Z,4.85
2018-02-20T02:31:21.175Z,4.80
2018-02-20T02:33:48.722Z,4.15
2018-02-20T02:36:16.373Z,4.65
2018-02-20T02:38:43.899Z,4.68
2018-02-20T02:41:11.442Z,3.95
2018-02-20T02:43:39.061Z,4.80
2018-02-20T02:46:06.713Z,4.28
2018-02-20T02:48:34.223Z,4.62
2018-02-20T02:51:01.748Z,4.15
2018-02-20T02:53:29.296Z,3.50
2018-02-20T02:55:56.862Z,3.10
2018-02-20T02:58:24.421Z,3.33
2018-02-20T03:00:52.280Z,3.10
2018-02-20T03:03:19.831Z,4.12
2018-02-20T03:05:47.367Z,3.67
2018-02-20T03:08:14.900Z,3.83
2018-02-20T03:10:42.456Z,4.40
2018-02-20T03:13:10.016Z,3.50
2018-02-20T03:15:37.560Z,2.87
2018-02-20T03:18:05.086Z,3.97
2018-02-20T03:20:32.595Z,4.05
2018-02-20T03:23:00.136Z,3.62
2018-02-20T03:25:27.695Z,3.53
2018-02-20T03:27:55.210Z,4.05
2018-02-20T03:30:22.759Z,4.97
2018-02-20T03:32:50.904Z,3.80
2018-02-20T03:35:18.433Z,5.03
2018-02-20T03:37:45.949Z,4.32
2018-02-20T03:40:13.473Z,3.75
2018-02-20T03:42:41.025Z,3.72
2018-02-20T03:45:08.542Z,4.57
2018-02-20T03:47:36.087Z,5.50
2018-02-20T03:50:03.624Z,5.82
2018-02-20T03:52:31.136Z,4.62
2018-02-20T03:54:58.689Z,4.53
2018-02-20T03:57:26.220Z,5.05
2018-02-20T03:59:53.728Z,3.95
2018-02-20T04:02:21.245Z,4.82
2018-02-20T04:04:48.938Z,4.40
2018-02-20T04:07:16.483Z,4.37
2018-02-20T04:09:43.997Z,4.50
2018-02-20T04:12:11.520Z,4.63
2018-02-20T04:14:39.060Z,4.90
2018-02-20T04:17:06.588Z,4.23
2018-02-20T04:19:34.148Z,4.20
2018-02-20T04:22:01.917Z,4.87
2018-02-20T04:24:29.452Z,4.18
2018-02-20T04:26:56.972Z,4.03
2018-02-20T04:29:24.510Z,5.03
2018-02-20T04:31:52.077Z,5.00
2018-02-20T04:34:19.619Z,5.30
2018-02-20T04:36:47.195Z,5.30
2018-02-20T04:39:14.724Z,4.00
2018-02-20T04:41:42.237Z,5.22
2018-02-20T04:44:09.803Z,5.20
2018-02-20T04:46:37.336Z,5.90
2018-02-20T04:49:04.847Z,6.50
2018-02-20T04:51:32.362Z,6.28
2018-02-20T04:53:59.885Z,4.97
2018-02-20T04:56:27.451Z,6.25
2018-02-20T04:58:54.978Z,6.05
2018-02-20T05:01:22.503Z,5.50
2018-02-20T05:03:50.011Z,5.43
2018-02-20T05:06:17.510Z,5.63
2018-02-20T05:08:45.046Z,6.15
2018-02-20T05:11:12.617Z,7.05
2018-02-20T05:13:40.250Z,6.43
2018-02-20T05:16:07.773Z,7.40
2018-02-20T05:18:35.553Z,6.70
2018-02-20T05:21:03.184Z,7.43
2018-02-20T05:23:30.768Z,8.02
2018-02-20T05:25:58.314Z,6.95
2018-02-20T05:28:26.615Z,7.57
2018-02-20T05:30:54.174Z,6.95
2018-02-20T05:33:21.700Z,6.87
2018-02-20T05:35:49.219Z,7.37
2018-02-20T05:38:18.569Z,8.15
2018-02-20T05:40:47.031Z,8.48
2018-02-20T05:43:14.830Z,6.40
2018-02-20T05:45:42.343Z,6.37
2018-02-20T05:48:09.862Z,7.70
2018-02-20T05:50:40.153Z,7.00
2018-02-20T05:53:07.675Z,8.10
2018-02-20T05:55:35.335Z,7.65
2018-02-20T05:58:02.855Z,6.23
2018-02-20T06:00:30.392Z,5.97
2018-02-20T06:02:57.915Z,7.10
2018-02-20T06:05:25.430Z,8.13
2018-02-20T06:07:52.987Z,8.10
2018-02-20T06:10:20.566Z,6.20
2018-02-20T06:12:48.094Z,6.60
2018-02-20T06:15:15.629Z,7.65
2018-02-20T06:17:43.149Z,5.57
2018-02-20T06:20:10.824Z,7.62
2018-02-20T06:22:38.356Z,7.20
2018-02-20T06:25:05.897Z,9.50
2018-02-20T06:27:33.423Z,8.77
2018-02-20T06:30:01.801Z,8.10
2018-02-20T06:32:29.326Z,7.35
2018-02-20T06:34:56.852Z,9.75
2018-02-20T06:37:24.445Z,8.52
2018-02-20T06:39:51.979Z,7.82
2018-02-20T06:42:19.518Z,6.85
2018-02-20T06:44:47.077Z,10.68
2018-02-20T06:47:14.658Z,9.32
2018-02-20T06:49:42.366Z,12.55
2018-02-20T06:52:09.909Z,13.05
2018-02-20T06:54:37.500Z,10.82
2018-02-20T06:57:05.077Z,9.85
2018-02-20T06:59:32.628Z,11.65
2018-02-20T07:02:00.427Z,10.25
2018-02-20T07:04:28.282Z,9.82
2018-02-20T07:06:55.830Z,10.32
2018-02-20T07:09:23.373Z,10.23
2018-02-20T07:11:50.939Z,9.00
2018-02-20T07:14:18.750Z,11.57
2018-02-20T07:16:46.298Z,8.23
2018-02-20T07:19:13.886Z,12.40
2018-02-20T07:21:41.477Z,12.13
2018-02-20T07:24:09.046Z,7.75
2018-02-20T07:26:36.588Z,10.70
2018-02-20T07:29:04.139Z,9.70
2018-02-20T07:31:31.790Z,10.20
2018-02-20T07:33:59.520Z,9.35
2018-02-20T07:36:27.061Z,12.15
2018-02-20T07:38:54.587Z,8.88
2018-02-20T07:41:22.171Z,11.65
2018-02-20T07:43:49.790Z,10.13
2018-02-20T07:46:17.413Z,12.98
2018-02-20T07:48:44.990Z,11.27
2018-02-20T07:51:12.545Z,9.88
2018-02-20T07:53:40.135Z,11.05
2018-02-20T07:56:07.765Z,10.98
2018-02-20T07:58:35.303Z,10.25
2018-02-20T08:01:02.866Z,8.75
2018-02-20T08:03:30.437Z,10.68
2018-02-20T08:05:58.024Z,10.57
2018-02-20T08:08:25.578Z,9.30
2018-02-20T08:10:53.178Z,10.75
2018-02-20T08:13:20.748Z,11.68
2018-02-20T08:15:48.340Z,9.50
2018-02-20T08:18:15.941Z,10.03
2018-02-20T08:20:43.579Z,9.80
2018-02-20T08:23:11.152Z,10.32
2018-02-20T08:25:38.718Z,8.03
2018-02-20T08:28:06.275Z,10.25
2018-02-20T08:30:33.871Z,8.30
2018-02-20T08:33:01.447Z,10.73
2018-02-20T08:35:29.005Z,9.13
2018-02-20T08:37:56.794Z,8.20
2018-02-20T08:40:24.302Z,7.10
2018-02-20T08:42:51.848Z,9.57
2018-02-20T08:45:19.373Z,9.18
2018-02-20T08:47:46.939Z,7.23
2018-02-20T08:50:14.454Z,8.67
2018-02-20T08:52:42.015Z,8.90
2018-02-20T08:55:09.583Z,8.67
2018-02-20T08:57:37.244Z,8.73
2018-02-20T09:00:07.684Z,8.85
2018-02-20T09:02:35.219Z,9.07
2018-02-20T09:05:03.362Z,8.63
2018-02-20T09:07:31.259Z,6.27
2018-02-20T09:09:58.787Z,9.23
2018-02-20T09:12:26.397Z,5.20
2018-02-20T09:14:53.930Z,8.70
2018-02-20T09:17:21.541Z,9.47
2018-02-20T09:19:49.106Z,8.23
2018-02-20T09:22:16.691Z,8.75
2018-02-20T09:24:44.375Z,8.27
2018-02-20T09:27:11.969Z,8.10
2018-02-20T09:29:39.793Z,10.13
2018-02-20T09:32:07.356Z,10.80
2018-02-20T09:34:34.915Z,10.13
2018-02-20T09:37:02.475Z,8.67
2018-02-20T09:39:30.019Z,9.27
2018-02-20T09:41:57.592Z,8.27
2018-02-20T09:44:25.111Z,7.10
2018-02-20T09:46:52.636Z,7.40
2018-02-20T09:49:20.246Z,7.80
2018-02-20T09:51:47.768Z,8.30
2018-02-20T09:54:15.429Z,9.20
2018-02-20T09:56:42.957Z,8.13
2018-02-20T09:59:10.525Z,9.53
2018-02-20T10:01:38.225Z,10.17
2018-02-20T10:04:05.772Z,9.63
2018-02-20T10:06:33.344Z,8.57
2018-02-20T10:09:01.816Z,8.50
2018-02-20T10:11:29.384Z,8.00
2018-02-20T10:13:56.920Z,6.60
2018-02-20T10:16:24.449Z,9.10
2018-02-20T10:18:51.976Z,10.90
2018-02-20T10:21:19.548Z,7.57
2018-02-20T10:23:47.125Z,10.03
2018-02-20T10:26:14.695Z,9.73
2018-02-20T10:28:42.300Z,10.40
2018-02-20T10:31:10.104Z,8.77
2018-02-20T10:33:37.748Z,10.57
2018-02-20T10:36:05.311Z,10.83
2018-02-20T10:38:32.889Z,6.70
2018-02-20T10:41:01.032Z,9.30
2018-02-20T10:43:28.588Z,9.10
2018-02-20T10:45:56.112Z,7.80
2018-02-20T10:48:23.692Z,9.47
2018-02-20T10:50:51.202Z,9.97
2018-02-20T10:53:18.817Z,9.40
2018-02-20T10:55:46.992Z,11.23
2018-02-20T10:58:14.580Z,7.57
2018-02-20T11:00:42.122Z,10.67
2018-02-20T11:03:09.648Z,11.13
2018-02-20T11:05:37.242Z,10.20
2018-02-20T11:08:04.770Z,10.00
2018-02-20T11:10:32.294Z,11.07
2018-02-20T11:12:59.821Z,9.93
2018-02-20T11:15:27.341Z,9.70
2018-02-20T11:17:54.872Z,11.40
2018-02-20T11:20:22.390Z,9.33
2018-02-20T11:22:49.946Z,10.77
2018-02-20T11:25:17.531Z,9.67
2018-02-20T11:27:45.290Z,10.60
2018-02-20T11:30:13.866Z,9.97
2018-02-20T11:32:41.382Z,9.20
2018-02-20T11:35:08.916Z,10.43
2018-02-20T11:37:36.452Z,9.50
2018-02-20T11:40:04.024Z,8.53
2018-02-20T11:42:31.567Z,10.33
2018-02-20T11:44:59.081Z,10.87
2018-02-20T11:47:26.797Z,9.67
2018-02-20T11:49:54.394Z,11.60
2018-02-20T11:52:21.952Z,11.30
2018-02-20T11:54:49.995Z,10.33
2018-02-20T11:57:17.523Z,8.70
2018-02-20T11:59:45.165Z,10.20
2018-02-20T12:02:12.746Z,10.73
2018-02-20T12:04:40.344Z,10.10
2018-02-20T12:07:07.872Z,7.77
2018-02-20T12:09:35.484Z,7.13
2018-02-20T12:12:03.065Z,8.00
2018-02-20T12:14:30.657Z,9.87
2018-02-20T12:16:58.227Z,8.80
2018-02-20T12:19:25.845Z,8.47
2018-02-20T12:21:53.465Z,10.80
2018-02-20T12:24:21.017Z,6.70
2018-02-20T12:26:48.652Z,10.53
2018-02-20T12:29:16.247Z,11.03
2018-02-20T12:31:43.839Z,8.77
2018-02-20T12:34:11.387Z,6.93
2018-02-20T12:36:38.976Z,9.07
2018-02-20T12:39:06.591Z,8.80
2018-02-20T12:41:35.362Z,8.47
2018-02-20T12:44:02.901Z,8.73
2018-02-20T12:46:31.768Z,8.70
2018-02-20T12:48:59.323Z,7.50
2018-02-20T12:51:26.922Z,9.30
2018-02-20T12:53:54.567Z,9.03
2018-02-20T12:56:22.230Z,10.37
2018-02-20T12:58:49.832Z,8.27
2018-02-20T13:01:18.173Z,9.97
2018-02-20T13:03:45.769Z,8.77
2018-02-20T13:06:13.313Z,8.10
2018-02-20T13:08:41.057Z,10.80
2018-02-20T13:11:08.636Z,8.87
2018-02-20T13:13:36.520Z,10.43
2018-02-20T13:16:04.114Z,7.30
2018-02-20T13:18:32.157Z,9.67
2018-02-20T13:20:59.814Z,11.60
2018-02-20T13:23:27.379Z,10.40
2018-02-20T13:25:55.175Z,8.30
2018-02-20T13:28:22.678Z,7.10
2018-02-20T13:30:50.380Z,12.07
2018-02-20T13:33:17.996Z,11.30
2018-02-20T13:35:45.551Z,10.60
2018-02-20T13:38:13.086Z,11.13
2018-02-20T13:40:40.800Z,10.00
2018-02-20T13:43:09.167Z,9.73
2018-02-20T13:45:36.729Z,10.13
2018-02-20T13:48:04.323Z,11.83
2018-02-20T13:50:31.896Z,13.50
2018-02-20T13:52:59.519Z,11.87
2018-02-20T13:55:27.974Z,11.80
2018-02-20T13:57:55.583Z,12.40
2018-02-20T14:00:23.997Z,15.00
2018-02-20T14:02:51.586Z,13.37
2018-02-20T14:05:19.170Z,12.83
2018-02-20T14:07:46.744Z,11.77
2018-02-20T14:10:15.354Z,12.77
2018-02-20T14:12:42.874Z,14.47
2018-02-20T14:15:10.417Z,12.17
2018-02-20T14:17:38.057Z,14.07
2018-02-20T14:20:05.598Z,12.80
2018-02-20T14:22:33.122Z,13.27
2018-02-20T14:25:00.718Z,15.13
2018-02-20T14:27:28.289Z,14.77
2018-02-20T14:29:56.097Z,15.77
2018-02-20T14:32:23.728Z,17.13
2018-02-20T14:34:51.268Z,14.83
2018-02-20T14:37:19.792Z,16.67
2018-02-20T14:39:47.314Z,16.07
2018-02-20T14:42:14.854Z,11.90
2018-02-20T14:44:42.426Z,10.93
2018-02-20T14:47:09.959Z,14.03
2018-02-20T14:49:37.506Z,13.73
2018-02-20T14:52:05.878Z,16.77
2018-02-20T14:54:33.441Z,17.00
2018-02-20T14:57:00.978Z,12.83
2018-02-20T14:59:28.498Z,15.60
2018-02-20T15:01:56.055Z,14.15
2018-02-20T15:04:24.071Z,17.40
2018-02-20T15:06:51.616Z,14.87
2018-02-20T15:09:19.214Z,15.43
2018-02-20T15:11:46.777Z,14.83
2018-02-20T15:14:14.807Z,16.10
2018-02-20T15:16:42.610Z,16.03
2018-02-20T15:19:10.295Z,14.15
2018-02-20T15:21:37.904Z,14.93
2018-02-20T15:24:05.807Z,14.70
2018-02-20T15:26:33.403Z,16.65
2018-02-20T15:29:00.947Z,16.10
2018-02-20T15:31:28.528Z,12.10
2018-02-20T15:33:56.097Z,15.00
2018-02-20T15:36:23.630Z,14.98
2018-02-20T15:38:51.149Z,18.27
2018-02-20T15:41:18.728Z,15.40
2018-02-20T15:43:46.304Z,16.27
2018-02-20T15:46:13.922Z,17.17
2018-02-20T15:48:41.491Z,20.20
2018-02-20T15:51:09.080Z,19.05
2018-02-20T15:53:36.709Z,19.48
2018-02-20T15:56:04.361Z,17.52
2018-02-20T15:58:32.018Z,17.67
2018-02-20T16:00:59.573Z,16.42
2018-02-20T16:03:27.102Z,18.90
2018-02-20T16:05:54.682Z,22.17
2018-02-20T16:08:22.268Z,21.10
2018-02-20T16:10:49.831Z,17.90
2018-02-20T16:13:17.393Z,15.48
2018-02-20T16:16:01.881Z,18.98
2018-02-20T16:18:29.583Z,19.77
2018-02-20T16:20:57.139Z,17.12
2018-02-20T16:23:24.688Z,17.40
2018-02-20T16:25:52.252Z,17.42
2018-02-20T16:28:19.784Z,19.08
2018-02-20T16:30:47.302Z,17.80
2018-02-20T16:33:14.852Z,17.58
2018-02-20T16:35:42.380Z,18.37
2018-02-20T16:38:10.023Z,18.23
2018-02-20T16:40:37.567Z,17.80
2018-02-20T16:43:05.168Z,16.80
2018-02-20T16:45:32.747Z,15.68
2018-02-20T16:48:01.371Z,15.67
2018-02-20T16:50:28.912Z,15.52
2018-02-20T16:52:56.459Z,18.07
2018-02-20T16:55:23.973Z,13.10
2018-02-20T16:57:51.517Z,12.43
2018-02-20T17:00:19.070Z,12.93
2018-02-20T17:02:46.606Z,12.80
2018-02-20T17:05:14.171Z,19.45
2018-02-20T17:07:41.730Z,12.50
2018-02-20T17:10:09.267Z,15.33
2018-02-20T17:12:37.298Z,16.20
2018-02-20T17:15:04.900Z,16.77
2018-02-20T17:17:32.445Z,20.37
2018-02-20T17:20:00.494Z,19.98
2018-02-20T17:22:28.024Z,14.80
2018-02-20T17:24:55.673Z,15.27
2018-02-20T17:27:23.207Z,17.83
2018-02-20T17:29:50.787Z,20.90
2018-02-20T17:32:18.318Z,19.13
2018-02-20T17:34:45.848Z,21.30
2018-02-20T17:37:13.424Z,14.00
2018-02-20T17:39:40.946Z,14.70
2018-02-20T17:42:08.521Z,14.90
2018-02-20T17:44:36.835Z,16.20
2018-02-20T17:47:04.342Z,16.67
2018-02-20T17:49:31.886Z,13.77
2018-02-20T17:51:59.427Z,13.20
2018-02-20T17:54:26.956Z,15.13
2018-02-20T17:56:54.506Z,13.65
2018-02-20T17:59:22.018Z,13.90
2018-02-20T18:01:49.577Z,13.00
2018-02-20T18:04:17.141Z,13.93
2018-02-20T18:06:44.665Z,12.30
2018-02-20T18:09:12.245Z,13.97
2018-02-20T18:11:39.865Z,11.80
2018-02-20T18:14:07.687Z,11.93
2018-02-20T18:16:35.184Z,16.63
2018-02-20T18:19:02.722Z,11.87
2018-02-20T18:21:30.249Z,16.20
2018-02-20T18:23:57.775Z,13.87
2018-02-20T18:26:25.360Z,14.20
2018-02-20T18:28:52.882Z,17.53
2018-02-20T18:31:20.417Z,19.00
2018-02-20T18:33:47.968Z,18.10
2018-02-20T18:36:15.500Z,17.67
2018-02-20T18:38:43.981Z,18.80
2018-02-20T18:41:12.509Z,13.53
2018-02-20T18:43:40.306Z,18.07
2018-02-20T18:46:07.840Z,11.98
2018-02-20T18:48:35.432Z,17.17
2018-02-20T18:51:03.748Z,17.20
2018-02-20T18:53:31.262Z,18.63
2018-02-20T18:55:58.869Z,16.67
2018-02-20T18:58:26.402Z,13.30
2018-02-20T19:00:54.119Z,15.73
2018-02-20T19:03:21.640Z,14.67
2018-02-20T19:05:49.176Z,16.98
2018-02-20T19:08:16.780Z,16.20
2018-02-20T19:10:44.316Z,23.03
2018-02-20T19:13:12.844Z,22.70
2018-02-20T19:15:40.563Z,22.90
2018-02-20T19:18:09.973Z,24.15
2018-02-20T19:20:37.509Z,24.20
2018-02-20T19:23:05.047Z,21.27
2018-02-20T19:25:32.610Z,20.13
2018-02-20T19:28:00.135Z,19.57
2018-02-20T19:30:27.674Z,18.13
2018-02-20T19:32:55.223Z,18.30
2018-02-20T19:35:22.826Z,23.10
2018-02-20T19:37:50.390Z,25.40
2018-02-20T19:40:18.059Z,24.43
2018-02-20T19:42:45.728Z,23.47
2018-02-20T19:45:13.344Z,24.13
2018-02-20T19:47:41.375Z,24.30
2018-02-20T19:50:10.732Z,21.90
2018-02-20T19:52:38.414Z,25.40
2018-02-20T19:55:06.086Z,19.90
2018-02-20T19:57:33.673Z,25.40
2018-02-20T20:00:01.263Z,24.60
2018-02-20T20:02:28.955Z,20.45
2018-02-20T20:04:56.588Z,14.83
2018-02-20T20:07:24.287Z,15.00
2018-02-20T20:09:51.840Z,16.20
2018-02-20T20:12:19.384Z,13.80
2018-02-20T20:14:46.910Z,15.88
2018-02-20T20:17:14.554Z,15.10
2018-02-20T20:19:42.200Z,15.20
2018-02-20T20:22:11.066Z,17.03
2018-02-20T20:24:38.674Z,16.40
2018-02-20T20:27:06.223Z,13.43
2018-02-20T20:29:33.800Z,13.17
2018-02-20T20:32:01.420Z,13.63
2018-02-20T20:34:29.004Z,13.60
2018-02-20T20:36:56.654Z,11.80
2018-02-20T20:39:24.224Z,11.93
2018-02-20T20:41:51.783Z,12.23
2018-02-20T20:44:19.412Z,12.82
2018-02-20T20:46:47.010Z,12.60
2018-02-20T20:49:14.595Z,12.43
2018-02-20T20:51:42.940Z,14.07
2018-02-20T20:54:10.527Z,15.87
2018-02-20T20:56:38.218Z,16.00
2018-02-20T20:59:05.788Z,13.83
2018-02-20T21:01:33.378Z,13.17
2018-02-20T21:04:00.957Z,14.00
2018-02-20T21:06:28.545Z,14.53
2018-02-20T21:08:56.238Z,13.03
2018-02-20T21:11:23.785Z,14.07
2018-02-20T21:13:51.573Z,14.03
2018-02-20T21:16:19.174Z,11.50
2018-02-20T21:18:46.763Z,13.50
2018-02-20T21:21:14.342Z,11.50
2018-02-20T21:23:42.178Z,13.25
2018-02-20T21:26:09.779Z,14.63
2018-02-20T21:28:37.362Z,13.23
2018-02-20T21:31:05.034Z,12.23
2018-02-20T21:33:32.612Z,11.10
2018-02-20T21:36:00.229Z,13.87
2018-02-20T21:38:28.754Z,11.67
2018-02-20T21:40:57.168Z,12.90
2018-02-20T21:43:25.708Z,12.40
2018-02-20T21:45:53.279Z,12.87
2018-02-20T21:48:20.866Z,11.40
2018-02-20T21:50:48.577Z,13.07
2018-02-20T21:53:16.151Z,10.93
2018-02-20T21:55:43.737Z,11.23
2018-02-20T21:58:11.296Z,8.57
2018-02-20T22:00:38.937Z,8.90
2018-02-20T22:03:06.492Z,11.60
2018-02-20T22:05:34.080Z,10.70
2018-02-20T22:08:01.721Z,8.93
2018-02-20T22:10:29.667Z,10.27
2018-02-20T22:12:57.253Z,11.40
2018-02-20T22:15:24.822Z,12.43
2018-02-20T22:17:52.421Z,17.80
2018-02-20T22:20:20.002Z,15.73
2018-02-20T22:22:47.569Z,15.03
2018-02-20T22:25:15.278Z,16.60
2018-02-20T22:27:42.852Z,15.73
2018-02-20T22:30:10.468Z,15.70
2018-02-20T22:32:38.048Z,13.60
2018-02-20T22:35:05.651Z,12.00
2018-02-20T22:37:33.214Z,15.30
2018-02-20T22:40:00.787Z,13.23
2018-02-20T22:42:28.362Z,14.90
2018-02-20T22:44:55.952Z,12.53
2018-02-20T22:47:23.501Z,14.63
2018-02-20T22:49:51.098Z,13.70
2018-02-20T22:52:18.721Z,14.45
2018-02-20T22:54:46.299Z,14.30
2018-02-20T22:57:13.877Z,13.18
2018-02-20T22:59:41.465Z,12.15
2018-02-20T23:02:09.064Z,11.03
2018-02-20T23:04:36.617Z,12.27
2018-02-20T23:07:04.199Z,13.23
2018-02-20T23:09:31.769Z,12.90
2018-02-20T23:11:59.322Z,10.40
2018-02-20T23:14:26.944Z,10.43
2018-02-20T23:16:54.546Z,11.77
2018-02-20T23:19:22.258Z,7.53
2018-02-20T23:21:49.865Z,10.80
2018-02-20T23:24:17.471Z,10.20
2018-02-20T23:26:45.222Z,10.60
2018-02-20T23:29:12.798Z,11.13
2018-02-20T23:31:40.489Z,10.97
2018-02-20T23:34:08.080Z,11.50
2018-02-20T23:36:35.644Z,10.80
2018-02-20T23:39:03.195Z,12.00
2018-02-20T23:41:30.717Z,11.67
2018-02-20T23:43:58.272Z,11.20
2018-02-20T23:46:25.806Z,10.67
2018-02-20T23:48:53.353Z,11.38
2018-02-20T23:51:26.610Z,9.40
2018-02-20T23:53:54.144Z,10.30
2018-02-20T23:56:21.712Z,11.23
2018-02-20T23:58:49.262Z,9.90
